Time;durP1;ratioP1;P1;durP2;ratioP2;P2;SDS_P1;SDS_P2;PMS_P1;PMS_P2;Temp;Humidity;BMP_temperature;BMP_pressure;BME280_temperature;BME280_humidity;BME280_pressure;Samples;Min_cycle;Max_cycle;Signal;HPM_P1;HPM_P2
2021/07/08 00:01:08;;;;;;;9.65;4.38;;;25.40;60.80;;;;;;5049130;28;20378;-78
2021/07/08 00:03:34;;;;;;;10.07;4.75;;;25.30;61.50;;;;;;5049821;28;20021;-78
2021/07/08 00:05:59;;;;;;;5.20;4.45;;;25.30;61.80;;;;;;5049467;28;20459;-78
2021/07/08 00:08:25;;;;;;;7.75;5.18;;;25.10;62.30;;;;;;5049024;28;20039;-79
2021/07/08 00:10:55;;;;;;;7.55;4.65;;;25.10;62.70;;;;;;5049373;28;20036;-78
2021/07/08 00:13:27;;;;;;;7.40;5.60;;;25.00;63.20;;;;;;5049520;28;20025;-78
2021/07/08 00:15:53;;;;;;;5.82;4.60;;;24.90;63.60;;;;;;5067299;28;20028;-79
2021/07/08 00:18:20;;;;;;;7.72;4.80;;;24.90;63.80;;;;;;5066669;28;20493;-78
2021/07/08 00:20:47;;;;;;;6.07;4.85;;;24.80;64.30;;;;;;5067453;28;20040;-78
2021/07/08 00:23:18;;;;;;;12.18;4.65;;;24.70;64.60;;;;;;5066461;28;20020;-80
2021/07/08 00:25:45;;;;;;;12.10;5.18;;;24.60;65.00;;;;;;5049212;28;20024;-79
2021/07/08 00:28:15;;;;;;;9.05;5.40;;;24.60;65.50;;;;;;5049313;28;20119;-78
2021/07/08 00:30:42;;;;;;;6.18;5.25;;;24.60;65.80;;;;;;5049086;28;20078;-79
2021/07/08 00:33:09;;;;;;;8.00;5.05;;;24.50;66.00;;;;;;5066563;28;20059;-78
2021/07/08 00:35:36;;;;;;;11.30;6.00;;;24.50;66.30;;;;;;5045497;28;20076;-78
2021/07/08 00:38:02;;;;;;;8.00;5.38;;;24.50;66.30;;;;;;5045186;28;20509;-79
2021/07/08 00:40:28;;;;;;;10.52;5.93;;;24.50;66.50;;;;;;5045282;28;20025;-79
2021/07/08 00:42:53;;;;;;;10.25;6.07;;;24.60;66.80;;;;;;5045793;28;20494;-78
2021/07/08 00:45:21;;;;;;;9.38;6.07;;;24.50;66.80;;;;;;5045234;28;20032;-78
2021/07/08 00:47:47;;;;;;;8.68;6.15;;;24.50;66.90;;;;;;5046580;28;20032;-77
2021/07/08 00:50:14;;;;;;;7.13;5.32;;;24.50;67.10;;;;;;5046570;28;20107;-79
2021/07/08 00:52:40;;;;;;;13.23;5.00;;;24.40;67.20;;;;;;5045999;28;20761;-79
2021/07/08 00:55:08;;;;;;;7.80;5.30;;;24.40;67.10;;;;;;5046260;28;20588;-79
2021/07/08 00:57:33;;;;;;;9.07;5.05;;;24.30;67.20;;;;;;5045579;28;20029;-78
2021/07/08 00:59:59;;;;;;;7.82;5.05;;;24.30;67.50;;;;;;5046492;28;20393;-78
2021/07/08 01:02:26;;;;;;;11.25;6.18;;;24.30;68.00;;;;;;5046483;28;20638;-79
2021/07/08 01:04:53;;;;;;;11.93;6.03;;;24.20;68.40;;;;;;5045294;28;20033;-79
2021/07/08 01:07:22;;;;;;;7.90;5.60;;;24.20;68.60;;;;;;5044088;28;20104;-78
2021/07/08 01:09:48;;;;;;;9.48;5.03;;;24.10;68.80;;;;;;5046207;28;20021;-80
2021/07/08 01:12:14;;;;;;;6.38;4.95;;;24.10;68.90;;;;;;5046366;28;20454;-79
2021/07/08 01:14:40;;;;;;;7.00;5.72;;;24.00;69.20;;;;;;5044966;28;20061;-78
2021/07/08 01:17:06;;;;;;;8.25;5.80;;;24.00;69.50;;;;;;5044760;28;20033;-79
2021/07/08 01:19:35;;;;;;;11.07;5.40;;;24.00;69.60;;;;;;5046702;28;20037;-76
2021/07/08 01:22:00;;;;;;;7.45;5.78;;;24.00;69.70;;;;;;5045967;28;20028;-78
2021/07/08 01:24:26;;;;;;;7.65;4.70;;;23.90;69.80;;;;;;5044641;28;20025;-79
2021/07/08 01:26:53;;;;;;;6.53;5.25;;;23.80;69.80;;;;;;5045239;28;20033;-80
2021/07/08 01:29:19;;;;;;;7.68;5.10;;;23.80;70.20;;;;;;5046315;28;20028;-77
2021/07/08 01:31:45;;;;;;;7.82;5.25;;;23.70;70.30;;;;;;5046218;28;20155;-77
2021/07/08 01:34:11;;;;;;;7.72;5.20;;;23.70;70.40;;;;;;5046030;28;20111;-79
2021/07/08 01:36:37;;;;;;;9.48;5.45;;;23.70;70.50;;;;;;5044344;28;20390;-79
2021/07/08 01:39:04;;;;;;;7.22;5.25;;;23.70;70.40;;;;;;5045221;28;20029;-77
2021/07/08 01:41:30;;;;;;;6.70;5.38;;;23.60;70.40;;;;;;5044896;28;20116;-78
2021/07/08 01:43:56;;;;;;;6.60;5.03;;;23.50;70.90;;;;;;5046246;28;20116;-77
2021/07/08 01:46:22;;;;;;;7.00;5.72;;;23.50;71.10;;;;;;5044764;28;20033;-77
2021/07/08 01:48:48;;;;;;;6.07;5.05;;;23.50;71.80;;;;;;5046157;28;20029;-79
2021/07/08 01:51:29;;;;;;;6.30;5.20;;;23.50;71.50;;;;;;5044491;28;20036;-78
2021/07/08 01:53:55;;;;;;;6.88;5.15;;;23.40;71.90;;;;;;5044736;28;20037;-79
2021/07/08 01:56:21;;;;;;;7.90;5.28;;;23.40;71.80;;;;;;5045103;28;20056;-80
2021/07/08 01:58:48;;;;;;;8.93;5.35;;;23.40;71.80;;;;;;5046082;28;20059;-80
2021/07/08 02:01:15;;;;;;;6.70;5.65;;;23.40;71.90;;;;;;5049841;28;20440;-79
2021/07/08 02:03:42;;;;;;;8.27;5.43;;;23.40;72.10;;;;;;5048695;28;20020;-78
2021/07/08 02:06:08;;;;;;;11.73;5.57;;;23.40;72.20;;;;;;5048068;28;20033;-79
2021/07/08 02:08:36;;;;;;;10.57;5.32;;;23.40;72.30;;;;;;5048233;28;20025;-79
2021/07/08 02:11:02;;;;;;;5.97;5.38;;;23.40;72.30;;;;;;5049376;28;20666;-79
2021/07/08 02:13:28;;;;;;;10.32;5.22;;;23.40;72.30;;;;;;5049661;28;20094;-79
2021/07/08 02:15:54;;;;;;;6.47;5.30;;;23.50;72.50;;;;;;5048242;28;20028;-78
2021/07/08 02:18:19;;;;;;;9.57;6.38;;;23.50;72.60;;;;;;5048014;28;20070;-79
2021/07/08 02:20:45;;;;;;;10.95;5.57;;;23.40;72.60;;;;;;5048968;28;20409;-79
2021/07/08 02:23:11;;;;;;;9.18;5.80;;;23.50;72.60;;;;;;5047723;28;20029;-77
2021/07/08 02:25:36;;;;;;;8.98;5.90;;;23.50;72.80;;;;;;5048079;28;20025;-79
2021/07/08 02:28:02;;;;;;;9.88;5.97;;;23.40;73.00;;;;;;5047997;28;20033;-79
2021/07/08 02:30:28;;;;;;;10.93;6.38;;;23.40;73.20;;;;;;5047433;28;20116;-80
2021/07/08 02:32:55;;;;;;;7.55;6.18;;;23.40;73.30;;;;;;5047996;28;20482;-78
2021/07/08 02:35:24;;;;;;;8.20;6.20;;;23.40;73.50;;;;;;5049429;28;20183;-78
2021/07/08 02:37:52;;;;;;;7.60;5.78;;;23.30;73.90;;;;;;5051081;28;20394;-80
2021/07/08 02:40:26;;;;;;;8.18;6.55;;;23.30;74.10;;;;;;5069253;28;20044;-80
2021/07/08 02:42:52;;;;;;;10.02;6.78;;;23.20;74.50;;;;;;5050858;28;20378;-79
2021/07/08 02:45:23;;;;;;;8.80;6.22;;;23.20;74.70;;;;;;5068553;28;20024;-80
2021/07/08 02:47:49;;;;;;;7.57;6.00;;;23.20;75.10;;;;;;5069006;28;20021;-78
2021/07/08 02:50:15;;;;;;;9.60;6.43;;;23.20;75.10;;;;;;5050591;28;20033;-78
2021/07/08 02:52:45;;;;;;;12.85;6.38;;;23.20;75.20;;;;;;5068552;28;20071;-78
2021/07/08 02:55:12;;;;;;;7.28;5.47;;;23.20;75.30;;;;;;5068894;28;20056;-78
2021/07/08 02:57:39;;;;;;;7.38;5.40;;;23.20;75.20;;;;;;5068468;28;20086;-78
2021/07/08 03:00:07;;;;;;;12.85;6.45;;;23.20;75.10;;;;;;5050658;28;20051;-79
2021/07/08 03:02:33;;;;;;;9.02;5.72;;;23.20;74.90;;;;;;5068633;28;20028;-79
2021/07/08 03:04:59;;;;;;;10.75;6.35;;;23.20;75.00;;;;;;5049813;28;20027;-78
2021/07/08 03:07:24;;;;;;;12.23;7.25;;;23.20;75.50;;;;;;5050242;28;20032;-78
2021/07/08 03:09:50;;;;;;;9.48;7.53;;;23.20;76.00;;;;;;5068514;28;20020;-79
2021/07/08 03:12:16;;;;;;;9.90;6.18;;;23.20;75.80;;;;;;5050253;28;20115;-79
2021/07/08 03:14:42;;;;;;;9.02;6.38;;;23.20;75.80;;;;;;5050224;28;20036;-78
2021/07/08 03:17:08;;;;;;;11.45;6.35;;;23.20;75.80;;;;;;5050335;28;20442;-78
2021/07/08 03:19:33;;;;;;;10.40;7.57;;;23.30;75.60;;;;;;5050134;28;20126;-78
2021/07/08 03:21:59;;;;;;;8.90;6.18;;;23.30;75.70;;;;;;5067987;28;20045;-79
2021/07/08 03:24:25;;;;;;;8.30;6.28;;;23.30;75.50;;;;;;5049804;28;20032;-79
2021/07/08 03:26:50;;;;;;;8.25;6.53;;;23.40;75.50;;;;;;5050430;28;20086;-78
2021/07/08 03:29:16;;;;;;;8.05;6.40;;;23.40;75.30;;;;;;5067693;28;20086;-79
2021/07/08 03:31:42;;;;;;;12.95;6.03;;;23.50;75.20;;;;;;5050097;28;20025;-77
2021/07/08 03:34:07;;;;;;;7.07;6.00;;;23.50;75.00;;;;;;5067226;28;20029;-77
2021/07/08 03:36:33;;;;;;;16.08;6.68;;;23.50;74.80;;;;;;5049834;28;20049;-78
2021/07/08 03:38:59;;;;;;;7.25;6.22;;;23.60;74.80;;;;;;5068001;28;20047;-78
2021/07/08 03:41:24;;;;;;;9.95;6.65;;;23.60;74.90;;;;;;5049779;28;20779;-78
2021/07/08 03:43:50;;;;;;;8.13;6.63;;;23.60;75.10;;;;;;5067445;28;20106;-79
2021/07/08 03:46:16;;;;;;;9.00;6.90;;;23.60;75.40;;;;;;5067881;28;20028;-79
2021/07/08 03:48:41;;;;;;;7.97;6.63;;;23.60;75.60;;;;;;5067712;28;20454;-79
2021/07/08 03:51:07;;;;;;;10.85;7.03;;;23.60;75.20;;;;;;5049386;28;20033;-79
2021/07/08 03:53:33;;;;;;;11.55;6.25;;;23.70;75.30;;;;;;5067491;28;20025;-77
2021/07/08 03:55:58;;;;;;;11.43;6.85;;;23.70;75.60;;;;;;5049504;28;20024;-78
2021/07/08 03:58:24;;;;;;;10.63;7.03;;;23.70;76.00;;;;;;5067637;28;20499;-78
2021/07/08 04:00:51;;;;;;;9.20;6.35;;;23.70;75.90;;;;;;5067132;28;20409;-80
2021/07/08 04:03:18;;;;;;;10.50;6.22;;;23.80;75.60;;;;;;5048631;28;20028;-81
2021/07/08 04:05:45;;;;;;;9.05;5.68;;;24.00;75.20;;;;;;5066629;28;20481;-82
2021/07/08 04:08:12;;;;;;;11.75;6.13;;;24.20;74.40;;;;;;5067373;28;20029;-80
2021/07/08 04:10:39;;;;;;;11.00;6.47;;;24.40;73.30;;;;;;5049297;28;20025;-79
2021/07/08 04:13:11;;;;;;;10.38;5.90;;;24.70;72.20;;;;;;5048833;28;20017;-80
2021/07/08 04:15:37;;;;;;;14.32;6.55;;;25.00;71.10;;;;;;5049025;28;20467;-78
2021/07/08 04:18:04;;;;;;;9.65;6.43;;;25.20;70.60;;;;;;5049020;28;20511;-77
2021/07/08 04:20:30;;;;;;;9.35;6.40;;;25.40;70.20;;;;;;5048473;28;20016;-78
2021/07/08 04:22:56;;;;;;;10.68;6.65;;;25.50;69.70;;;;;;5049050;28;20037;-78
2021/07/08 04:25:22;;;;;;;14.05;6.63;;;25.60;69.50;;;;;;5048817;28;20056;-78
2021/07/08 04:27:49;;;;;;;11.63;6.57;;;25.70;69.20;;;;;;5048965;28;20060;-78
2021/07/08 04:30:21;;;;;;;8.27;6.40;;;25.80;69.00;;;;;;5048701;28;20058;-77
2021/07/08 04:32:47;;;;;;;8.88;6.00;;;25.90;69.10;;;;;;5049101;28;20078;-76
2021/07/08 04:35:17;;;;;;;8.38;6.13;;;26.00;69.00;;;;;;5048373;28;20855;-77
2021/07/08 04:37:43;;;;;;;7.93;6.00;;;26.10;68.90;;;;;;5066816;28;20028;-77
2021/07/08 04:40:12;;;;;;;13.15;6.00;;;26.20;68.30;;;;;;5049015;28;20024;-77
2021/07/08 04:42:39;;;;;;;8.32;6.07;;;26.30;68.30;;;;;;5066025;28;20571;-78
2021/07/08 04:45:06;;;;;;;11.80;6.35;;;26.50;68.00;;;;;;5048126;28;20135;-76
2021/07/08 04:47:32;;;;;;;7.88;5.75;;;26.60;67.80;;;;;;5047454;28;20036;-76
2021/07/08 04:49:58;;;;;;;8.18;5.82;;;26.80;67.50;;;;;;5045691;28;20041;-77
2021/07/08 04:52:23;;;;;;;8.50;5.88;;;26.90;67.30;;;;;;5041920;28;20047;-76
2021/07/08 04:54:49;;;;;;;9.82;6.18;;;27.10;67.10;;;;;;5060933;28;20063;-78
2021/07/08 04:57:17;;;;;;;9.10;6.20;;;27.20;67.10;;;;;;5063751;28;20070;-78
2021/07/08 04:59:43;;;;;;;7.47;5.88;;;27.30;67.10;;;;;;5047271;28;20054;-77
2021/07/08 05:02:08;;;;;;;13.75;5.40;;;27.40;66.80;;;;;;5066311;28;20104;-77
2021/07/08 05:04:34;;;;;;;7.47;5.30;;;27.60;66.00;;;;;;5065123;28;20099;-78
2021/07/08 05:06:59;;;;;;;9.57;6.20;;;27.80;65.80;;;;;;5065396;28;20033;-78
2021/07/08 05:09:25;;;;;;;19.20;5.43;;;27.90;65.50;;;;;;5064977;28;20033;-77
2021/07/08 05:11:51;;;;;;;8.60;5.93;;;28.10;65.40;;;;;;5045294;28;20112;-78
2021/07/08 05:14:16;;;;;;;6.75;4.80;;;28.30;64.40;;;;;;5047057;28;20075;-78
2021/07/08 05:16:42;;;;;;;14.07;6.25;;;28.40;63.70;;;;;;5046963;28;20576;-78
2021/07/08 05:19:08;;;;;;;6.43;5.55;;;28.50;62.10;;;;;;5046847;28;20036;-77
2021/07/08 05:21:34;;;;;;;7.32;5.25;;;28.70;60.90;;;;;;5065429;28;20023;-77
2021/07/08 05:24:03;;;;;;;7.70;5.63;;;28.90;60.10;;;;;;5047888;28;20036;-77
2021/07/08 05:26:29;;;;;;;7.22;4.90;;;29.10;58.80;;;;;;5047525;28;20021;-76
2021/07/08 05:28:54;;;;;;;6.75;5.97;;;29.10;58.20;;;;;;5047188;28;20394;-77
2021/07/08 05:31:20;;;;;;;11.60;5.43;;;29.20;58.60;;;;;;5045941;28;20455;-78
2021/07/08 05:33:46;;;;;;;8.63;4.90;;;29.40;58.70;;;;;;5050429;28;20045;-78
2021/07/08 05:36:11;;;;;;;10.02;5.00;;;29.50;57.70;;;;;;5052068;28;20390;-80
2021/07/08 05:38:37;;;;;;;9.27;5.70;;;29.60;56.90;;;;;;5069700;28;20039;-80
2021/07/08 05:41:03;;;;;;;7.47;5.22;;;29.80;56.50;;;;;;5070283;28;20017;-80
2021/07/08 05:43:28;;;;;;;8.43;5.65;;;30.00;55.60;;;;;;5069774;28;20034;-80
2021/07/08 05:45:54;;;;;;;11.25;5.68;;;30.20;54.80;;;;;;5051916;28;20071;-78
2021/07/08 05:48:19;;;;;;;10.55;5.35;;;30.40;54.40;;;;;;5051087;28;20025;-78
2021/07/08 05:50:46;;;;;;;6.85;5.28;;;30.60;53.30;;;;;;5051764;28;20059;-78
2021/07/08 05:53:12;;;;;;;5.78;4.90;;;31.00;51.90;;;;;;5051121;28;20035;-78
2021/07/08 05:55:37;;;;;;;10.32;6.00;;;31.30;51.90;;;;;;5050572;28;20032;-79
2021/07/08 05:58:03;;;;;;;20.67;5.82;;;31.60;51.40;;;;;;5068125;28;20497;-77
2021/07/08 06:00:29;;;;;;;5.10;4.28;;;32.70;49.50;;;;;;5050076;28;20116;-78
2021/07/08 06:02:54;;;;;;;7.57;5.47;;;33.90;47.00;;;;;;5068083;28;20021;-79
2021/07/08 06:05:20;;;;;;;5.07;4.57;;;34.80;43.20;;;;;;5068564;28;20028;-79
2021/07/08 06:07:46;;;;;;;11.80;4.70;;;35.60;41.20;;;;;;5051280;28;20032;-79
2021/07/08 06:10:12;;;;;;;7.28;5.28;;;36.60;39.40;;;;;;5069145;28;20032;-78
2021/07/08 06:12:40;;;;;;;6.25;4.53;;;37.40;37.90;;;;;;5051715;28;20021;-79
2021/07/08 06:15:06;;;;;;;6.90;5.32;;;37.70;36.20;;;;;;5069063;28;20036;-78
2021/07/08 06:17:32;;;;;;;6.25;4.80;;;38.30;35.30;;;;;;5051137;28;20052;-78
2021/07/08 06:19:57;;;;;;;10.02;5.38;;;38.30;35.30;;;;;;5069484;28;20497;-78
2021/07/08 06:22:23;;;;;;;9.88;5.07;;;39.30;34.60;;;;;;5051110;28;20017;-80
2021/07/08 06:24:49;;;;;;;14.02;4.82;;;39.20;33.30;;;;;;5051613;28;20036;-79
2021/07/08 06:27:14;;;;;;;6.78;5.75;;;39.10;33.40;;;;;;5069379;28;20051;-78
2021/07/08 06:29:40;;;;;;;8.23;4.97;;;39.30;33.60;;;;;;5068866;28;20072;-78
2021/07/08 06:32:06;;;;;;;8.60;4.72;;;39.70;32.90;;;;;;5051353;28;20028;-78
2021/07/08 06:34:32;;;;;;;9.35;4.50;;;40.00;33.00;;;;;;5068405;28;20082;-78
2021/07/08 06:36:57;;;;;;;10.88;4.40;;;40.50;31.80;;;;;;5051080;28;20048;-78
2021/07/08 06:39:23;;;;;;;9.48;5.10;;;40.50;31.60;;;;;;5050712;28;20074;-78
2021/07/08 06:41:48;;;;;;;5.53;4.63;;;40.80;31.30;;;;;;5068838;28;20033;-79
2021/07/08 06:44:14;;;;;;;7.20;4.68;;;40.70;31.70;;;;;;5050298;28;20028;-79
2021/07/08 06:46:40;;;;;;;5.85;4.47;;;40.80;31.40;;;;;;5050907;28;20064;-78
2021/07/08 06:49:08;;;;;;;10.23;4.68;;;40.60;31.90;;;;;;5050646;28;20040;-78
2021/07/08 06:51:33;;;;;;;7.03;4.70;;;40.40;31.70;;;;;;5050629;28;20447;-78
2021/07/08 06:54:00;;;;;;;11.35;4.65;;;40.60;31.50;;;;;;5068923;28;20054;-80
2021/07/08 06:56:25;;;;;;;10.80;4.70;;;40.80;31.00;;;;;;5069056;28;20039;-79
2021/07/08 06:58:51;;;;;;;6.55;4.55;;;40.60;31.20;;;;;;5050479;28;20017;-78
2021/07/08 07:01:17;;;;;;;6.72;4.80;;;40.90;30.90;;;;;;5068494;28;20104;-80
2021/07/08 07:03:43;;;;;;;6.88;5.05;;;40.80;31.30;;;;;;5068173;28;20140;-78
2021/07/08 07:06:09;;;;;;;9.80;5.13;;;40.60;31.50;;;;;;5051048;28;20353;-78
2021/07/08 07:08:34;;;;;;;7.00;4.75;;;40.60;31.60;;;;;;5067164;28;20507;-80
2021/07/08 07:11:00;;;;;;;14.43;5.50;;;40.70;31.60;;;;;;5046376;28;20571;-80
2021/07/08 07:13:26;;;;;;;7.18;5.03;;;40.80;31.40;;;;;;5049349;28;20417;-81
2021/07/08 07:15:52;;;;;;;18.02;5.25;;;40.10;31.50;;;;;;5048723;28;20031;-79
2021/07/08 07:18:18;;;;;;;6.00;4.15;;;40.50;31.50;;;;;;5048579;28;20209;-80
2021/07/08 07:20:43;;;;;;;5.53;4.85;;;40.40;32.00;;;;;;5046334;28;20177;-80
2021/07/08 07:23:09;;;;;;;15.30;5.30;;;40.10;31.90;;;;;;5067168;28;20507;-80
2021/07/08 07:25:40;;;;;;;12.07;4.45;;;40.20;31.80;;;;;;5047978;28;20797;-80
2021/07/08 07:28:07;;;;;;;7.07;5.00;;;40.40;31.60;;;;;;5062454;28;20024;-79
2021/07/08 07:30:33;;;;;;;7.53;4.72;;;40.60;31.50;;;;;;5048642;28;20413;-80
2021/07/08 07:32:58;;;;;;;8.52;5.03;;;40.60;31.40;;;;;;5048105;28;20033;-79
2021/07/08 07:35:24;;;;;;;5.70;4.65;;;40.60;31.30;;;;;;5046647;28;20033;-80
2021/07/08 07:37:50;;;;;;;11.38;4.57;;;40.40;32.00;;;;;;5067909;28;20044;-79
2021/07/08 07:40:17;;;;;;;8.05;4.53;;;40.10;31.70;;;;;;5049706;28;20021;-80
2021/07/08 07:42:43;;;;;;;9.73;4.38;;;40.40;31.70;;;;;;5049780;28;20086;-80
2021/07/08 07:45:09;;;;;;;6.28;4.70;;;40.60;31.80;;;;;;5049489;28;20020;-79
2021/07/08 07:47:35;;;;;;;7.43;4.57;;;40.60;31.30;;;;;;5067218;28;20108;-80
2021/07/08 07:50:02;;;;;;;7.22;3.97;;;40.50;32.20;;;;;;5049529;28;20021;-80
2021/07/08 07:52:27;;;;;;;8.25;4.25;;;40.10;32.40;;;;;;5049336;28;20063;-79
2021/07/08 07:54:53;;;;;;;5.03;4.15;;;40.10;32.20;;;;;;5067790;28;20029;-80
2021/07/08 07:57:19;;;;;;;9.82;4.63;;;40.40;31.50;;;;;;5048227;28;20127;-80
2021/07/08 07:59:45;;;;;;;4.78;4.22;;;40.60;31.80;;;;;;5067373;28;20394;-80
2021/07/08 08:02:14;;;;;;;6.70;4.20;;;40.60;31.60;;;;;;5066909;28;20103;-79
2021/07/08 08:04:54;;;;;;;9.23;4.25;;;40.10;32.00;;;;;;5048841;28;20031;-80
2021/07/08 08:10:05;;;;;;;5.00;4.38;;;40.10;31.30;;;;;;5067513;28;20036;-79
2021/07/08 08:12:32;;;;;;;5.28;4.32;;;40.00;31.60;;;;;;5066827;28;20108;-80
2021/07/08 08:14:58;;;;;;;13.10;5.32;;;40.10;32.30;;;;;;5066756;28;20032;-81
2021/07/08 08:17:24;;;;;;;13.38;4.55;;;40.10;31.70;;;;;;5048838;28;20031;-80
2021/07/08 08:19:49;;;;;;;12.07;4.85;;;40.20;32.60;;;;;;5066358;28;20048;-80
2021/07/08 08:22:17;;;;;;;9.85;4.00;;;40.50;32.30;;;;;;5066770;28;20021;-80
2021/07/08 08:24:44;;;;;;;10.77;4.00;;;40.50;31.30;;;;;;5065722;28;20651;-81
2021/07/08 08:27:10;;;;;;;12.63;4.25;;;40.10;30.30;;;;;;5067147;28;20060;-80
2021/07/08 08:29:36;;;;;;;10.43;4.88;;;40.10;31.00;;;;;;5049042;28;20063;-80
2021/07/08 08:32:02;;;;;;;12.48;5.10;;;39.90;31.70;;;;;;5066076;28;20052;-79
2021/07/08 08:34:27;;;;;;;11.70;4.50;;;39.70;32.40;;;;;;5066516;28;20484;-81
2021/07/08 08:36:53;;;;;;;8.98;3.95;;;39.80;31.90;;;;;;5066594;28;20051;-80
2021/07/08 08:39:18;;;;;;;5.65;4.25;;;39.90;32.20;;;;;;5048407;28;20455;-80
2021/07/08 08:41:44;;;;;;;7.72;4.28;;;40.30;32.00;;;;;;5048362;28;20570;-79
2021/07/08 08:44:10;;;;;;;7.93;3.95;;;40.00;31.90;;;;;;5066693;28;20550;-80
2021/07/08 08:46:36;;;;;;;9.82;4.45;;;40.10;30.90;;;;;;5066303;28;20507;-79
2021/07/08 08:49:03;;;;;;;5.28;4.65;;;39.90;30.20;;;;;;5066541;28;20823;-80
2021/07/08 08:51:30;;;;;;;9.30;4.35;;;39.70;31.60;;;;;;5066196;28;20040;-80
2021/07/08 08:53:55;;;;;;;13.25;4.10;;;39.50;32.30;;;;;;5047784;28;20051;-80
2021/07/08 08:56:21;;;;;;;9.43;4.03;;;39.80;31.20;;;;;;5066478;28;20522;-77
2021/07/08 08:58:47;;;;;;;7.70;4.63;;;39.90;30.70;;;;;;5066741;28;20093;-80
2021/07/08 09:01:19;;;;;;;10.45;4.80;;;40.20;30.70;;;;;;5047605;28;20023;-80
2021/07/08 09:03:46;;;;;;;8.73;4.32;;;40.20;30.90;;;;;;5066106;28;20081;-80
2021/07/08 09:06:14;;;;;;;25.35;4.28;;;40.70;30.50;;;;;;5065493;28;20024;-80
2021/07/08 09:08:45;;;;;;;6.72;4.15;;;40.70;30.00;;;;;;5044099;28;20032;-80
2021/07/08 09:11:15;;;;;;;6.00;4.68;;;40.60;31.50;;;;;;5044724;28;20033;-80
2021/07/08 09:13:56;;;;;;;10.27;4.25;;;40.40;30.80;;;;;;5045165;28;20433;-78
2021/07/08 09:16:22;;;;;;;8.68;4.75;;;40.40;31.40;;;;;;5044344;28;20036;-80
2021/07/08 09:18:59;;;;;;;11.02;4.90;;;40.40;32.10;;;;;;5045221;28;20037;-80
2021/07/08 09:21:26;;;;;;;6.22;4.13;;;40.40;31.70;;;;;;5046267;28;20040;-79
2021/07/08 09:24:15;;;;;;;7.70;4.78;;;40.60;31.50;;;;;;5044698;28;20140;-80
2021/07/08 09:26:43;;;;;;;5.88;4.43;;;41.00;30.30;;;;;;5046248;28;20033;-80
2021/07/08 09:29:20;;;;;;;7.43;4.03;;;40.90;30.60;;;;;;5044376;28;20048;-80
2021/07/08 09:32:01;;;;;;;6.60;4.25;;;41.00;30.30;;;;;;5045718;28;20056;-81
2021/07/08 09:34:30;;;;;;;6.50;3.95;;;41.10;30.30;;;;;;5044856;28;20127;-80
2021/07/08 09:37:19;;;;;;;8.02;4.13;;;41.40;30.90;;;;;;5044855;28;20057;-80
2021/07/08 09:39:53;;;;;;;11.63;4.25;;;41.10;29.80;;;;;;5044531;28;20486;-79
2021/07/08 09:42:36;;;;;;;6.30;4.63;;;40.50;30.70;;;;;;5044879;28;20508;-80
2021/07/08 09:45:12;;;;;;;8.40;4.10;;;40.30;31.30;;;;;;5046304;28;20611;-79
2021/07/08 09:47:40;;;;;;;7.82;3.90;;;40.60;30.00;;;;;;5046143;28;20048;-79
2021/07/08 09:50:28;;;;;;;8.55;4.30;;;40.70;29.80;;;;;;5044380;28;20037;-80
2021/07/08 09:53:10;;;;;;;10.32;4.00;;;40.80;29.90;;;;;;5034255;28;20067;-80
2021/07/08 09:58:57;;;;;;;7.05;3.30;;;41.00;29.60;;;;;;5045705;28;20127;-79
2021/07/08 10:01:24;;;;;;;5.05;3.40;;;41.00;29.40;;;;;;5043571;28;20029;-80
2021/07/08 10:03:51;;;;;;;5.47;3.67;;;41.00;29.60;;;;;;5045932;28;20040;-79
2021/07/08 10:06:18;;;;;;;6.18;4.00;;;40.80;29.40;;;;;;5043923;28;20071;-79
2021/07/08 10:08:45;;;;;;;5.93;4.07;;;40.60;29.60;;;;;;5045935;28;20378;-79
2021/07/08 10:11:12;;;;;;;8.00;4.20;;;40.40;30.00;;;;;;5045912;28;20111;-79
2021/07/08 10:13:39;;;;;;;9.50;4.15;;;40.00;30.20;;;;;;5064602;28;20789;-79
2021/07/08 10:16:06;;;;;;;5.63;3.75;;;39.50;30.90;;;;;;5046258;28;20416;-79
2021/07/08 10:18:36;;;;;;;6.45;3.42;;;38.50;31.20;;;;;;5046637;28;20032;-79
2021/07/08 10:21:02;;;;;;;8.55;3.80;;;38.10;32.30;;;;;;5067966;28;20137;-79
2021/07/08 10:23:32;;;;;;;3.90;3.50;;;37.80;32.10;;;;;;5049944;28;20115;-79
2021/07/08 10:26:00;;;;;;;6.60;3.67;;;37.60;32.90;;;;;;5069393;28;20028;-79
2021/07/08 10:28:29;;;;;;;7.07;3.92;;;37.70;32.70;;;;;;5069635;28;20043;-79
2021/07/08 10:30:56;;;;;;;5.80;3.35;;;37.70;31.90;;;;;;5050426;28;20107;-79
2021/07/08 10:33:22;;;;;;;10.63;4.00;;;37.70;32.90;;;;;;5051198;28;20150;-79
2021/07/08 10:35:50;;;;;;;4.78;4.22;;;37.70;32.90;;;;;;5050650;28;20068;-79
2021/07/08 10:39:00;;;;;;;5.22;3.88;;;37.80;32.70;;;;;;5051206;28;20831;-79
2021/07/08 10:41:34;;;;;;;7.63;3.70;;;37.80;32.90;;;;;;5000863;28;20394;-79
2021/07/08 10:44:00;;;;;;;4.15;3.22;;;37.80;32.70;;;;;;5062641;28;20040;-79
2021/07/08 10:46:37;;;;;;;9.50;4.05;;;37.60;33.50;;;;;;5066937;28;20025;-79
2021/07/08 10:49:13;;;;;;;13.07;4.32;;;37.20;34.00;;;;;;5046946;28;20416;-79
2021/07/08 10:51:42;;;;;;;5.93;3.67;;;36.90;34.20;;;;;;5061902;28;20513;-78
2021/07/08 10:54:27;;;;;;;5.25;4.00;;;36.70;34.40;;;;;;5048064;28;20029;-79
2021/07/08 10:56:54;;;;;;;7.07;4.13;;;36.90;35.00;;;;;;5048492;28;20032;-79
2021/07/08 10:59:20;;;;;;;9.32;4.57;;;36.80;35.30;;;;;;5066934;28;20516;-78
2021/07/08 11:01:48;;;;;;;9.60;4.03;;;36.60;34.50;;;;;;5066882;28;20282;-79
2021/07/08 11:04:15;;;;;;;9.60;3.88;;;36.60;35.50;;;;;;5049236;28;20032;-78
2021/07/08 11:06:46;;;;;;;6.25;3.60;;;36.60;35.90;;;;;;5049060;28;20017;-78
2021/07/08 11:09:17;;;;;;;8.55;3.60;;;36.70;35.10;;;;;;5049589;28;20405;-79
2021/07/08 11:11:45;;;;;;;6.60;3.38;;;36.80;34.70;;;;;;5049999;28;20067;-79
2021/07/08 11:14:12;;;;;;;5.72;4.05;;;36.90;34.80;;;;;;5047746;28;20040;-77
2021/07/08 11:16:46;;;;;;;7.25;4.30;;;36.70;35.20;;;;;;5048138;28;20028;-79
2021/07/08 11:19:30;;;;;;;7.35;3.53;;;36.40;36.10;;;;;;5066778;28;20074;-79
2021/07/08 11:22:04;;;;;;;11.07;4.20;;;36.50;36.80;;;;;;5063747;28;20029;-79
2021/07/08 11:24:57;;;;;;;6.35;4.25;;;36.30;36.20;;;;;;5046804;28;20032;-78
2021/07/08 11:27:23;;;;;;;8.32;4.75;;;36.20;37.10;;;;;;5048163;28;20134;-78
2021/07/08 11:29:54;;;;;;;9.45;4.22;;;36.30;36.60;;;;;;5046328;28;20075;-79
2021/07/08 11:32:29;;;;;;;13.93;4.53;;;36.40;35.80;;;;;;5046952;28;20032;-79
2021/07/08 11:35:16;;;;;;;5.20;4.03;;;36.50;35.70;;;;;;5049104;28;20039;-79
2021/07/08 11:37:43;;;;;;;5.25;4.68;;;36.30;35.90;;;;;;5048949;28;20497;-78
2021/07/08 11:40:10;;;;;;;8.98;4.15;;;36.10;36.90;;;;;;5045920;28;20432;-79
2021/07/08 11:42:37;;;;;;;6.75;3.75;;;36.20;36.80;;;;;;5046490;28;20033;-79
2021/07/08 11:45:04;;;;;;;10.18;4.20;;;36.20;36.70;;;;;;5047378;28;20035;-78
2021/07/08 11:47:40;;;;;;;4.32;3.78;;;36.50;37.10;;;;;;5048404;28;20021;-79
2021/07/08 11:50:14;;;;;;;9.18;4.28;;;36.70;36.10;;;;;;5049176;28;20035;-79
2021/07/08 11:52:40;;;;;;;5.05;4.55;;;36.80;36.10;;;;;;5049066;28;20039;-78
2021/07/08 11:55:07;;;;;;;7.05;4.80;;;36.90;35.30;;;;;;5049501;28;20040;-78
2021/07/08 11:57:49;;;;;;;6.95;4.45;;;36.70;35.30;;;;;;5049111;28;20028;-78
2021/07/08 12:00:38;;;;;;;9.25;4.03;;;36.40;36.10;;;;;;5049361;28;20101;-79
2021/07/08 12:03:39;;;;;;;7.30;3.65;;;36.40;36.20;;;;;;5067520;28;20025;-76
2021/07/08 12:06:12;;;;;;;5.20;3.92;;;36.50;36.10;;;;;;5052609;28;20041;-77
2021/07/08 12:08:43;;;;;;;12.85;4.60;;;36.70;35.80;;;;;;5045928;28;20027;-77
2021/07/08 12:13:49;;;;;;;17.23;4.55;;;36.80;34.80;;;;;;5060460;28;20017;-76
2021/07/08 12:16:17;;;;;;;9.43;4.18;;;36.70;34.90;;;;;;5044807;28;20077;-76
2021/07/08 12:18:49;;;;;;;10.85;4.80;;;36.70;35.10;;;;;;5065884;28;20021;-78
2021/07/08 12:21:22;;;;;;;6.93;4.32;;;36.50;36.20;;;;;;5065409;28;20128;-78
2021/07/08 12:23:49;;;;;;;9.77;3.85;;;36.50;36.20;;;;;;5065076;28;20029;-77
2021/07/08 12:26:25;;;;;;;11.18;4.45;;;36.60;35.20;;;;;;5065692;28;20020;-77
2021/07/08 12:28:51;;;;;;;5.22;4.13;;;36.60;35.70;;;;;;5047227;28;20033;-78
2021/07/08 12:31:18;;;;;;;9.95;5.35;;;36.70;34.90;;;;;;5047617;28;20082;-77
2021/07/08 12:34:02;;;;;;;7.40;4.20;;;36.70;34.90;;;;;;5045949;28;20543;-77
2021/07/08 12:36:28;;;;;;;11.45;4.70;;;36.60;34.20;;;;;;5061891;28;20067;-78
2021/07/08 12:38:54;;;;;;;14.43;4.30;;;36.60;35.20;;;;;;5066463;28;20028;-77
2021/07/08 12:41:19;;;;;;;11.88;4.80;;;36.60;35.10;;;;;;5066188;28;20036;-78
2021/07/08 12:43:45;;;;;;;6.18;4.80;;;36.60;35.50;;;;;;5065992;28;20103;-77
2021/07/08 12:46:11;;;;;;;15.07;5.57;;;36.80;34.30;;;;;;5048665;28;20119;-78
2021/07/08 12:48:37;;;;;;;11.50;4.55;;;36.80;34.40;;;;;;5066429;28;20032;-79
2021/07/08 12:51:03;;;;;;;6.28;4.65;;;36.90;34.60;;;;;;5066833;28;20028;-79
2021/07/08 12:53:29;;;;;;;9.85;4.60;;;36.80;34.00;;;;;;5048254;28;20425;-78
2021/07/08 12:55:58;;;;;;;12.55;4.75;;;36.80;34.80;;;;;;5066513;28;20020;-79